sensor_id;sensor_type;location;lat;lon;timestamp;pressure;altitude;pressure_sealevel;temperature;humidity
59063;BME280;44851;45.648;9.004;2023-02-10T00:01:33;100915.78;;;-0.03;44.03
59063;BME280;44851;45.648;9.004;2023-02-10T00:03:58;100916.63;;;-0.03;44.39
59063;BME280;44851;45.648;9.004;2023-02-10T00:06:26;100915.13;;;-0.16;44.55
59063;BME280;44851;45.648;9.004;2023-02-10T00:08:59;100906.41;;;-0.06;44.22
59063;BME280;44851;45.648;9.004;2023-02-10T00:11:26;100908.22;;;-0.11;44.99
59063;BME280;44851;45.648;9.004;2023-02-10T00:14:15;100908.41;;;-0.23;45.00
59063;BME280;44851;45.648;9.004;2023-02-10T00:16:41;100903.16;;;-0.14;44.40
59063;BME280;44851;45.648;9.004;2023-02-10T00:19:06;100904.84;;;-0.13;44.27
59063;BME280;44851;45.648;9.004;2023-02-10T00:21:32;100904.03;;;-0.15;44.00
59063;BME280;44851;45.648;9.004;2023-02-10T00:23:58;100903.13;;;-0.13;44.18
59063;BME280;44851;45.648;9.004;2023-02-10T00:26:23;100913.59;;;-0.26;44.59
59063;BME280;44851;45.648;9.004;2023-02-10T00:28:49;100904.00;;;-0.14;44.17
59063;BME280;44851;45.648;9.004;2023-02-10T00:31:15;100906.63;;;-0.18;44.36
59063;BME280;44851;45.648;9.004;2023-02-10T00:33:44;100909.59;;;-0.44;45.00
59063;BME280;44851;45.648;9.004;2023-02-10T00:36:12;100901.13;;;-0.49;45.50
59063;BME280;44851;45.648;9.004;2023-02-10T00:38:39;100906.13;;;-0.40;45.10
59063;BME280;44851;45.648;9.004;2023-02-10T00:41:13;100909.50;;;-0.38;44.81
59063;BME280;44851;45.648;9.004;2023-02-10T00:43:39;100902.75;;;-0.42;44.85
59063;BME280;44851;45.648;9.004;2023-02-10T00:46:06;100901.03;;;-0.43;44.82
59063;BME280;44851;45.648;9.004;2023-02-10T00:48:32;100897.66;;;-0.45;44.86
59063;BME280;44851;45.648;9.004;2023-02-10T00:50:57;100896.00;;;-0.49;45.14
59063;BME280;44851;45.648;9.004;2023-02-10T00:53:23;100894.41;;;-0.56;45.59
59063;BME280;44851;45.648;9.004;2023-02-10T00:55:48;100898.75;;;-0.61;45.42
59063;BME280;44851;45.648;9.004;2023-02-10T00:58:14;100899.66;;;-0.66;45.50
59063;BME280;44851;45.648;9.004;2023-02-10T01:00:39;100891.00;;;-0.58;45.34
59063;BME280;44851;45.648;9.004;2023-02-10T01:03:05;100891.06;;;-0.61;45.61
59063;BME280;44851;45.648;9.004;2023-02-10T01:05:30;100886.81;;;-0.62;45.74
59063;BME280;44851;45.648;9.004;2023-02-10T01:07:55;100894.44;;;-0.59;45.45
59063;BME280;44851;45.648;9.004;2023-02-10T01:10:21;100886.03;;;-0.68;45.91
59063;BME280;44851;45.648;9.004;2023-02-10T01:12:47;100891.97;;;-0.66;45.47
59063;BME280;44851;45.648;9.004;2023-02-10T01:15:13;100890.31;;;-0.70;45.82
59063;BME280;44851;45.648;9.004;2023-02-10T01:17:38;100892.88;;;-0.68;45.94
59063;BME280;44851;45.648;9.004;2023-02-10T01:20:05;100892.81;;;-0.63;45.60
59063;BME280;44851;45.648;9.004;2023-02-10T01:22:34;100880.91;;;-0.68;46.06
59063;BME280;44851;45.648;9.004;2023-02-10T01:25:00;100876.72;;;-0.73;46.22
59063;BME280;44851;45.648;9.004;2023-02-10T01:27:25;100886.72;;;-0.56;46.07
59063;BME280;44851;45.648;9.004;2023-02-10T01:29:51;100883.31;;;-0.57;46.40
59063;BME280;44851;45.648;9.004;2023-02-10T01:32:16;100883.41;;;-0.63;46.38
59063;BME280;44851;45.648;9.004;2023-02-10T01:34:42;100879.88;;;-0.56;46.32
59063;BME280;44851;45.648;9.004;2023-02-10T01:37:07;100872.34;;;-0.63;46.61
59063;BME280;44851;45.648;9.004;2023-02-10T01:39:33;100870.59;;;-0.61;46.71
59063;BME280;44851;45.648;9.004;2023-02-10T01:41:58;100874.03;;;-0.62;46.81
59063;BME280;44851;45.648;9.004;2023-02-10T01:46:53;100866.19;;;-0.53;46.74
59063;BME280;44851;45.648;9.004;2023-02-10T01:49:24;100862.88;;;-0.60;46.75
59063;BME280;44851;45.648;9.004;2023-02-10T01:52:08;100855.41;;;-0.74;46.47
59063;BME280;44851;45.648;9.004;2023-02-10T01:54:42;100855.44;;;-0.77;47.44
59063;BME280;44851;45.648;9.004;2023-02-10T01:57:08;100859.88;;;-0.88;47.43
59063;BME280;44851;45.648;9.004;2023-02-10T01:59:36;100858.19;;;-0.89;47.66
59063;BME280;44851;45.648;9.004;2023-02-10T02:02:02;100848.88;;;-0.96;47.64
59063;BME280;44851;45.648;9.004;2023-02-10T02:04:49;100856.56;;;-0.96;46.76
59063;BME280;44851;45.648;9.004;2023-02-10T02:07:17;100851.38;;;-0.90;47.67
59063;BME280;44851;45.648;9.004;2023-02-10T02:09:44;100849.63;;;-0.88;47.68
59063;BME280;44851;45.648;9.004;2023-02-10T02:12:31;100842.75;;;-0.84;47.50
59063;BME280;44851;45.648;9.004;2023-02-10T02:24:01;100825.03;;;-0.98;47.60
59063;BME280;44851;45.648;9.004;2023-02-10T02:26:58;100826.69;;;-0.94;47.58
59063;BME280;44851;45.648;9.004;2023-02-10T02:30:03;100827.75;;;-1.09;47.38
59063;BME280;44851;45.648;9.004;2023-02-10T02:32:38;100822.75;;;-1.16;48.47
59063;BME280;44851;45.648;9.004;2023-02-10T02:35:12;100814.88;;;-1.04;48.37
59063;BME280;44851;45.648;9.004;2023-02-10T02:37:44;100816.56;;;-1.03;48.07
59063;BME280;44851;45.648;9.004;2023-02-10T02:40:14;100813.19;;;-1.05;48.34
59063;BME280;44851;45.648;9.004;2023-02-10T02:42:40;100806.38;;;-1.06;48.12
59063;BME280;44851;45.648;9.004;2023-02-10T02:55:47;100807.03;;;-0.92;47.24
59063;BME280;44851;45.648;9.004;2023-02-10T03:00:54;100798.78;;;-1.12;47.97
59063;BME280;44851;45.648;9.004;2023-02-10T03:03:22;100803.03;;;-1.10;47.86
59063;BME280;44851;45.648;9.004;2023-02-10T03:05:47;100794.63;;;-1.20;48.28
59063;BME280;44851;45.648;9.004;2023-02-10T03:08:13;100799.72;;;-1.16;48.25
59063;BME280;44851;45.648;9.004;2023-02-10T03:10:38;100794.53;;;-1.13;48.09
59063;BME280;44851;45.648;9.004;2023-02-10T03:13:04;100797.88;;;-1.08;48.34
59063;BME280;44851;45.648;9.004;2023-02-10T03:15:29;100786.81;;;-1.12;48.15
59063;BME280;44851;45.648;9.004;2023-02-10T03:17:56;100791.25;;;-1.23;48.36
59063;BME280;44851;45.648;9.004;2023-02-10T03:20:21;100792.00;;;-1.15;48.65
59063;BME280;44851;45.648;9.004;2023-02-10T03:22:47;100796.28;;;-1.15;48.48
59063;BME280;44851;45.648;9.004;2023-02-10T03:25:12;100794.59;;;-1.16;48.54
59063;BME280;44851;45.648;9.004;2023-02-10T03:27:38;100795.44;;;-1.17;48.58
59063;BME280;44851;45.648;9.004;2023-02-10T03:30:04;100803.94;;;-1.17;48.53
59063;BME280;44851;45.648;9.004;2023-02-10T03:32:30;100798.78;;;-1.12;48.39
59063;BME280;44851;45.648;9.004;2023-02-10T03:34:55;100784.53;;;-1.30;48.81
59063;BME280;44851;45.648;9.004;2023-02-10T03:37:21;100792.88;;;-1.17;48.68
59063;BME280;44851;45.648;9.004;2023-02-10T03:39:46;100781.88;;;-1.21;48.71
59063;BME280;44851;45.648;9.004;2023-02-10T03:42:12;100780.88;;;-1.12;48.78
59063;BME280;44851;45.648;9.004;2023-02-10T03:44:37;100779.31;;;-1.21;48.47
59063;BME280;44851;45.648;9.004;2023-02-10T03:47:03;100777.78;;;-1.33;48.79
59063;BME280;44851;45.648;9.004;2023-02-10T03:49:28;100779.31;;;-1.23;48.67
59063;BME280;44851;45.648;9.004;2023-02-10T03:51:53;100774.19;;;-1.23;48.69
59063;BME280;44851;45.648;9.004;2023-02-10T03:54:19;100779.38;;;-1.26;48.87
59063;BME280;44851;45.648;9.004;2023-02-10T03:56:44;100778.44;;;-1.20;48.43
59063;BME280;44851;45.648;9.004;2023-02-10T03:59:10;100775.16;;;-1.30;48.54
59063;BME280;44851;45.648;9.004;2023-02-10T04:01:35;100777.88;;;-1.42;48.66
59063;BME280;44851;45.648;9.004;2023-02-10T04:04:01;100772.06;;;-1.55;49.66
59063;BME280;44851;45.648;9.004;2023-02-10T04:06:26;100774.47;;;-1.44;48.95
59063;BME280;44851;45.648;9.004;2023-02-10T04:08:52;100772.78;;;-1.45;49.19
59063;BME280;44851;45.648;9.004;2023-02-10T04:11:18;100777.03;;;-1.44;49.28
59063;BME280;44851;45.648;9.004;2023-02-10T04:13:44;100781.34;;;-1.46;49.03
59063;BME280;44851;45.648;9.004;2023-02-10T04:16:13;100779.59;;;-1.44;48.74
59063;BME280;44851;45.648;9.004;2023-02-10T04:18:39;100785.56;;;-1.45;48.78
59063;BME280;44851;45.648;9.004;2023-02-10T04:21:06;100783.84;;;-1.41;48.57
59063;BME280;44851;45.648;9.004;2023-02-10T04:23:32;100785.66;;;-1.51;49.04
59063;BME280;44851;45.648;9.004;2023-02-10T04:25:58;100789.91;;;-1.50;48.94
59063;BME280;44851;45.648;9.004;2023-02-10T04:28:24;100785.72;;;-1.56;49.05
59063;BME280;44851;45.648;9.004;2023-02-10T04:30:54;100784.78;;;-1.50;48.96
59063;BME280;44851;45.648;9.004;2023-02-10T04:33:21;100781.34;;;-1.49;48.85
59063;BME280;44851;45.648;9.004;2023-02-10T04:35:49;100785.66;;;-1.51;49.02
59063;BME280;44851;45.648;9.004;2023-02-10T04:38:15;100791.66;;;-1.52;48.63
59063;BME280;44851;45.648;9.004;2023-02-10T04:40:42;100789.97;;;-1.53;48.53
59063;BME280;44851;45.648;9.004;2023-02-10T04:43:08;100790.75;;;-1.48;48.63
59063;BME280;44851;45.648;9.004;2023-02-10T04:45:34;100785.69;;;-1.54;48.86
59063;BME280;44851;45.648;9.004;2023-02-10T04:47:59;100779.72;;;-1.53;48.95
59063;BME280;44851;45.648;9.004;2023-02-10T04:50:25;100793.50;;;-1.66;49.30
59063;BME280;44851;45.648;9.004;2023-02-10T04:52:50;100797.88;;;-1.76;49.26
59063;BME280;44851;45.648;9.004;2023-02-10T04:55:16;100800.38;;;-1.72;49.26
59063;BME280;44851;45.648;9.004;2023-02-10T04:57:41;100793.63;;;-1.77;49.12
59063;BME280;44851;45.648;9.004;2023-02-10T05:00:07;100797.03;;;-1.77;49.32
59063;BME280;44851;45.648;9.004;2023-02-10T05:02:33;100800.38;;;-1.72;49.79
59063;BME280;44851;45.648;9.004;2023-02-10T05:04:58;100794.53;;;-1.81;50.06
59063;BME280;44851;45.648;9.004;2023-02-10T05:07:24;100796.13;;;-1.69;49.45
59063;BME280;44851;45.648;9.004;2023-02-10T05:09:49;100797.03;;;-1.77;49.79
59063;BME280;44851;45.648;9.004;2023-02-10T05:12:14;100798.72;;;-1.76;49.85
59063;BME280;44851;45.648;9.004;2023-02-10T05:14:40;100788.50;;;-1.76;49.73
59063;BME280;44851;45.648;9.004;2023-02-10T05:17:05;100776.72;;;-1.86;50.16
59063;BME280;44851;45.648;9.004;2023-02-10T05:19:31;100778.34;;;-1.80;50.15
59063;BME280;44851;45.648;9.004;2023-02-10T05:21:57;100789.41;;;-1.78;49.84
59063;BME280;44851;45.648;9.004;2023-02-10T05:24:22;100791.06;;;-1.76;49.93
59063;BME280;44851;45.648;9.004;2023-02-10T05:26:48;100791.84;;;-1.71;49.80
59063;BME280;44851;45.648;9.004;2023-02-10T05:29:14;100803.72;;;-1.63;49.77
59063;BME280;44851;45.648;9.004;2023-02-10T05:31:39;100809.81;;;-1.75;49.94
59063;BME280;44851;45.648;9.004;2023-02-10T05:34:05;100803.84;;;-1.77;50.00
59063;BME280;44851;45.648;9.004;2023-02-10T05:36:30;100805.66;;;-1.84;50.11
59063;BME280;44851;45.648;9.004;2023-02-10T05:38:56;100804.78;;;-1.83;50.53
59063;BME280;44851;45.648;9.004;2023-02-10T05:41:40;100803.88;;;-1.79;50.19
59063;BME280;44851;45.648;9.004;2023-02-10T05:44:05;100814.94;;;-1.75;50.29
59063;BME280;44851;45.648;9.004;2023-02-10T05:46:31;100812.44;;;-1.83;50.57
59063;BME280;44851;45.648;9.004;2023-02-10T05:48:56;100821.78;;;-1.82;50.53
59063;BME280;44851;45.648;9.004;2023-02-10T05:51:21;100817.59;;;-1.86;50.16
59063;BME280;44851;45.648;9.004;2023-02-10T05:53:47;100816.84;;;-1.95;50.66
59063;BME280;44851;45.648;9.004;2023-02-10T05:56:12;100817.59;;;-1.86;50.33
59063;BME280;44851;45.648;9.004;2023-02-10T05:58:38;100822.66;;;-1.83;50.00
59063;BME280;44851;45.648;9.004;2023-02-10T06:01:09;100829.38;;;-1.73;49.81
59063;BME280;44851;45.648;9.004;2023-02-10T06:03:35;100828.66;;;-1.87;50.09
59063;BME280;44851;45.648;9.004;2023-02-10T06:06:00;100825.34;;;-1.95;50.15
59063;BME280;44851;45.648;9.004;2023-02-10T06:08:26;100826.16;;;-1.90;50.26
59063;BME280;44851;45.648;9.004;2023-02-10T06:10:52;100837.25;;;-1.94;50.43
59063;BME280;44851;45.648;9.004;2023-02-10T06:13:17;100843.19;;;-1.89;50.06
59063;BME280;44851;45.648;9.004;2023-02-10T06:15:43;100840.66;;;-1.90;50.08
59063;BME280;44851;45.648;9.004;2023-02-10T06:18:08;100847.50;;;-1.95;50.14
59063;BME280;44851;45.648;9.004;2023-02-10T06:20:34;100844.06;;;-1.91;50.18
59063;BME280;44851;45.648;9.004;2023-02-10T06:22:59;100852.81;;;-2.15;50.75
59063;BME280;44851;45.648;9.004;2023-02-10T06:25:25;100850.13;;;-2.03;50.75
59063;BME280;44851;45.648;9.004;2023-02-10T06:27:50;100849.22;;;-1.98;50.16
59063;BME280;44851;45.648;9.004;2023-02-10T06:30:16;100861.28;;;-2.13;50.95
59063;BME280;44851;45.648;9.004;2023-02-10T06:32:41;100861.22;;;-2.06;50.93
59063;BME280;44851;45.648;9.004;2023-02-10T06:35:07;100865.56;;;-2.12;51.24
59063;BME280;44851;45.648;9.004;2023-02-10T06:37:32;100876.69;;;-2.24;51.72
59063;BME280;44851;45.648;9.004;2023-02-10T06:39:58;100868.91;;;-2.06;51.26
59063;BME280;44851;45.648;9.004;2023-02-10T06:42:23;100879.09;;;-2.04;51.08
59063;BME280;44851;45.648;9.004;2023-02-10T06:44:49;100876.50;;;-2.00;51.24
59063;BME280;44851;45.648;9.004;2023-02-10T06:47:14;100878.13;;;-1.92;51.45
59063;BME280;44851;45.648;9.004;2023-02-10T06:49:40;100882.50;;;-2.05;51.18
59063;BME280;44851;45.648;9.004;2023-02-10T06:52:05;100881.72;;;-2.13;51.93
59063;BME280;44851;45.648;9.004;2023-02-10T06:54:31;100885.16;;;-2.19;51.84
59063;BME280;44851;45.648;9.004;2023-02-10T06:56:56;100886.00;;;-2.15;52.33
59063;BME280;44851;45.648;9.004;2023-02-10T06:59:22;100878.31;;;-2.11;52.14
59063;BME280;44851;45.648;9.004;2023-02-10T07:01:47;100881.69;;;-2.07;52.00
59063;BME280;44851;45.648;9.004;2023-02-10T07:04:13;100890.22;;;-2.13;51.75
59063;BME280;44851;45.648;9.004;2023-02-10T07:06:39;100891.00;;;-2.00;51.83
59063;BME280;44851;45.648;9.004;2023-02-10T07:09:05;100892.72;;;-2.05;52.05
59063;BME280;44851;45.648;9.004;2023-02-10T07:11:31;100891.94;;;-2.10;51.99
59063;BME280;44851;45.648;9.004;2023-02-10T07:13:57;100895.28;;;-2.05;52.15
59063;BME280;44851;45.648;9.004;2023-02-10T07:16:22;100900.34;;;-2.02;51.93
59063;BME280;44851;45.648;9.004;2023-02-10T07:18:48;100903.78;;;-2.03;52.19
59063;BME280;44851;45.648;9.004;2023-02-10T07:21:13;100894.38;;;-1.98;51.93
59063;BME280;44851;45.648;9.004;2023-02-10T07:23:39;100913.19;;;-2.08;52.03
59063;BME280;44851;45.648;9.004;2023-02-10T07:26:05;100912.34;;;-2.09;52.19
59063;BME280;44851;45.648;9.004;2023-02-10T07:28:31;100914.00;;;-2.03;51.77
59063;BME280;44851;45.648;9.004;2023-02-10T07:30:56;100918.25;;;-2.01;51.66
59063;BME280;44851;45.648;9.004;2023-02-10T07:33:21;100922.47;;;-1.96;51.94
59063;BME280;44851;45.648;9.004;2023-02-10T07:35:47;100920.69;;;-1.85;51.60
59063;BME280;44851;45.648;9.004;2023-02-10T07:38:12;100919.84;;;-1.89;51.98
59063;BME280;44851;45.648;9.004;2023-02-10T07:40:38;100923.22;;;-1.87;51.72
59063;BME280;44851;45.648;9.004;2023-02-10T07:43:03;100924.06;;;-1.83;51.78
59063;BME280;44851;45.648;9.004;2023-02-10T07:45:29;100931.69;;;-1.79;52.15
59063;BME280;44851;45.648;9.004;2023-02-10T07:47:57;100931.63;;;-1.76;52.38
59063;BME280;44851;45.648;9.004;2023-02-10T07:50:23;100932.66;;;-1.90;52.57
59063;BME280;44851;45.648;9.004;2023-02-10T07:52:48;100938.66;;;-1.96;52.70
59063;BME280;44851;45.648;9.004;2023-02-10T07:55:14;100936.09;;;-1.99;52.92
59063;BME280;44851;45.648;9.004;2023-02-10T07:57:40;100946.28;;;-1.91;52.64
59063;BME280;44851;45.648;9.004;2023-02-10T08:00:08;100940.16;;;-0.97;50.45
59063;BME280;44851;45.648;9.004;2023-02-10T08:02:33;100936.00;;;-1.04;50.52
59063;BME280;44851;45.648;9.004;2023-02-10T08:04:59;100941.03;;;-0.98;50.89
59063;BME280;44851;45.648;9.004;2023-02-10T08:07:25;100942.56;;;-0.83;50.65
59063;BME280;44851;45.648;9.004;2023-02-10T08:09:50;100945.84;;;-0.75;50.90
59063;BME280;44851;45.648;9.004;2023-02-10T08:12:16;100943.34;;;-0.76;51.10
59063;BME280;44851;45.648;9.004;2023-02-10T08:14:41;100953.41;;;-0.64;50.87
59063;BME280;44851;45.648;9.004;2023-02-10T08:17:07;100952.41;;;-0.54;50.79
59063;BME280;44851;45.648;9.004;2023-02-10T08:19:32;100947.19;;;-0.46;50.94
59063;BME280;44851;45.648;9.004;2023-02-10T08:21:58;100953.06;;;-0.40;51.00
59063;BME280;44851;45.648;9.004;2023-02-10T08:24:24;100952.22;;;-0.40;51.17
59063;BME280;44851;45.648;9.004;2023-02-10T08:26:49;100964.13;;;-0.36;50.98
59063;BME280;44851;45.648;9.004;2023-02-10T08:29:15;100964.06;;;-0.33;50.82
59063;BME280;44851;45.648;9.004;2023-02-10T08:31:40;100963.25;;;-0.35;50.88
59063;BME280;44851;45.648;9.004;2023-02-10T08:34:13;100967.41;;;-0.28;51.10
59063;BME280;44851;45.648;9.004;2023-02-10T08:36:39;100975.97;;;-0.29;50.02
59063;BME280;44851;45.648;9.004;2023-02-10T08:39:05;100965.19;;;0.05;49.61
59063;BME280;44851;45.648;9.004;2023-02-10T08:41:31;100966.50;;;0.30;50.46
59063;BME280;44851;45.648;9.004;2023-02-10T08:43:57;100974.81;;;0.45;50.16
59063;BME280;44851;45.648;9.004;2023-02-10T08:46:23;100974.59;;;0.57;50.40
59063;BME280;44851;45.648;9.004;2023-02-10T08:48:49;100974.34;;;0.69;49.63
59063;BME280;44851;45.648;9.004;2023-02-10T08:51:15;100977.53;;;0.83;50.11
59063;BME280;44851;45.648;9.004;2023-02-10T08:53:41;100976.25;;;1.04;49.33
59063;BME280;44851;45.648;9.004;2023-02-10T08:56:09;100981.22;;;1.54;48.38
59063;BME280;44851;45.648;9.004;2023-02-10T08:58:35;100987.91;;;2.00;47.57
59063;BME280;44851;45.648;9.004;2023-02-10T09:01:01;100984.66;;;2.27;45.79
59063;BME280;44851;45.648;9.004;2023-02-10T09:03:32;100986.00;;;2.74;45.11
59063;BME280;44851;45.648;9.004;2023-02-10T09:05:57;100993.94;;;2.98;43.81
59063;BME280;44851;45.648;9.004;2023-02-10T09:08:23;100985.00;;;3.42;43.63
59063;BME280;44851;45.648;9.004;2023-02-10T09:10:48;100984.88;;;3.75;43.20
59063;BME280;44851;45.648;9.004;2023-02-10T09:13:14;100990.16;;;3.98;43.69
59063;BME280;44851;45.648;9.004;2023-02-10T09:15:41;100985.31;;;3.89;42.29
59063;BME280;44851;45.648;9.004;2023-02-10T09:18:07;100991.16;;;4.21;41.16
59063;BME280;44851;45.648;9.004;2023-02-10T09:20:34;100995.19;;;4.29;40.71
59063;BME280;44851;45.648;9.004;2023-02-10T09:22:59;100990.66;;;4.10;40.46
59063;BME280;44851;45.648;9.004;2023-02-10T09:25:25;100995.09;;;4.57;40.27
59063;BME280;44851;45.648;9.004;2023-02-10T09:27:53;100998.75;;;4.77;39.12
59063;BME280;44851;45.648;9.004;2023-02-10T09:30:21;100998.69;;;4.53;38.86
59063;BME280;44851;45.648;9.004;2023-02-10T09:32:47;101007.28;;;4.79;38.59
59063;BME280;44851;45.648;9.004;2023-02-10T09:35:12;101005.34;;;5.09;38.11
59063;BME280;44851;45.648;9.004;2023-02-10T09:37:38;101009.13;;;5.24;37.62
59063;BME280;44851;45.648;9.004;2023-02-10T09:40:03;101005.97;;;5.16;37.23
59063;BME280;44851;45.648;9.004;2023-02-10T09:45:18;101014.56;;;5.85;36.31
59063;BME280;44851;45.648;9.004;2023-02-10T09:48:00;101013.91;;;6.03;36.22
59063;BME280;44851;45.648;9.004;2023-02-10T10:17:58;101022.31;;;6.71;33.03
